Time;durP1;ratioP1;P1;durP2;ratioP2;P2;SDS_P1;SDS_P2;PMS_P1;PMS_P2;Temp;Humidity;BMP_temperature;BMP_pressure;BME280_temperature;BME280_humidity;BME280_pressure;Samples;Min_cycle;Max_cycle;Signal;HPM_P1;HPM_P2
2021/12/05 00:17:14;;;;;;;8.07;1.58;;;;;;;2.49;100.00;97758.63;5072882;28;20066;-79
2021/12/05 00:20:01;;;;;;;7.85;1.33;;;;;;;2.49;100.00;97769.34;5067621;28;20593;-79
2021/12/05 00:22:32;;;;;;;8.10;1.60;;;;;;;2.37;100.00;97773.38;5069874;28;20407;-80
2021/12/05 00:25:03;;;;;;;6.32;1.55;;;;;;;2.40;100.00;97783.75;5064763;28;20045;-79
2021/12/05 00:27:35;;;;;;;6.43;1.52;;;;;;;2.39;100.00;97780.22;5061640;28;20502;-79
2021/12/05 00:30:24;;;;;;;6.88;2.35;;;;;;;2.25;100.00;97775.53;5071772;28;20048;-80
2021/12/05 00:33:04;;;;;;;3.25;1.70;;;;;;;2.34;100.00;97787.13;5067169;28;20122;-79
2021/12/05 00:47:09;;;;;;;4.97;1.60;;;;;;;2.19;100.00;97762.78;5073160;28;20121;-80
2021/12/05 00:49:59;;;;;;;4.13;1.55;;;;;;;2.21;100.00;97763.47;5070866;28;20055;-79
2021/12/05 00:52:58;;;;;;;2.97;1.00;;;;;;;2.20;100.00;97749.22;5071723;28;20139;-79
2021/12/05 01:01:38;;;;;;;5.13;1.13;;;;;;;2.19;100.00;97744.84;5017255;28;20396;-80
2021/12/05 01:09:41;;;;;;;2.35;1.30;;;;;;;2.27;100.00;97771.69;5071692;28;20040;-79
2021/12/05 01:12:33;;;;;;;5.53;1.75;;;;;;;2.24;100.00;97755.94;5070640;28;20044;-80
2021/12/05 01:15:05;;;;;;;3.58;1.75;;;;;;;2.29;100.00;97779.56;5069077;28;20055;-80
2021/12/05 01:17:39;;;;;;;5.55;2.53;;;;;;;2.22;100.00;97767.81;5062373;28;20045;-80
2021/12/05 01:20:10;;;;;;;11.98;4.13;;;;;;;2.21;100.00;97775.00;5057967;28;20044;-79
2021/12/05 01:22:44;;;;;;;5.32;1.45;;;;;;;2.23;100.00;97780.22;5071203;28;20114;-80
2021/12/05 01:25:22;;;;;;;3.70;1.40;;;;;;;2.23;100.00;97799.84;5071982;28;20444;-80
2021/12/05 01:27:56;;;;;;;4.68;1.80;;;;;;;2.28;100.00;97792.13;5072362;28;20143;-79
2021/12/05 01:30:33;;;;;;;12.20;1.70;;;;;;;2.24;100.00;97781.91;5070746;28;20045;-80
2021/12/05 01:33:06;;;;;;;7.82;2.00;;;;;;;2.17;100.00;97787.09;5070002;28;20048;-79
2021/12/05 01:38:29;;;;;;;8.40;1.52;;;;;;;2.35;100.00;97805.72;5071411;28;20071;-78
2021/12/05 01:41:10;;;;;;;5.10;1.38;;;;;;;2.33;100.00;97796.97;5070742;28;20143;-78
2021/12/05 01:50:07;;;;;;;14.70;1.95;;;;;;;2.35;100.00;97803.03;5013896;28;20053;-78
2021/12/05 01:55:49;;;;;;;9.43;1.83;;;;;;;2.22;100.00;97821.44;5070453;28;20047;-78
2021/12/05 01:58:32;;;;;;;6.32;1.63;;;;;;;2.10;100.00;97824.44;5070471;28;20048;-78
2021/12/05 02:01:41;;;;;;;5.68;1.17;;;;;;;2.03;100.00;97803.81;5068975;28;20063;-78
2021/12/05 02:32:04;;;;;;;2.28;0.95;;;;;;;2.20;100.00;97789.44;5063841;28;20050;-78
2021/12/05 02:34:42;;;;;;;3.85;1.42;;;;;;;2.33;100.00;97796.97;5070955;28;20140;-78
2021/12/05 02:37:29;;;;;;;7.43;1.70;;;;;;;2.32;100.00;97794.47;5070349;28;20079;-78
2021/12/05 02:42:57;;;;;;;10.80;1.45;;;;;;;2.22;100.00;97778.56;5038363;28;20063;-78
2021/12/05 02:45:24;;;;;;;3.25;1.20;;;;;;;2.11;100.00;97766.31;5070476;28;20572;-78
2021/12/05 02:47:53;;;;;;;6.10;1.60;;;;;;;2.10;100.00;97780.72;5070801;28;20719;-80
2021/12/05 02:50:23;;;;;;;4.90;1.38;;;;;;;2.07;100.00;97786.41;5070385;28;20053;-78
2021/12/05 02:52:55;;;;;;;2.97;1.67;;;;;;;2.16;100.00;97796.13;5070878;28;20519;-78
2021/12/05 02:55:32;;;;;;;5.00;1.40;;;;;;;2.21;100.00;97804.50;5069736;28;20059;-78
2021/12/05 02:58:01;;;;;;;5.88;1.20;;;;;;;2.11;100.00;97777.84;5069455;28;20055;-77
2021/12/05 03:00:38;;;;;;;10.55;2.25;;;;;;;2.17;100.00;97771.00;5069506;28;20135;-77
2021/12/05 03:03:16;;;;;;;5.60;1.50;;;;;;;2.35;100.00;97788.78;5066647;28;20071;-77
2021/12/05 03:05:50;;;;;;;8.32;1.85;;;;;;;2.29;100.00;97787.63;5069777;28;20060;-77
2021/12/05 03:08:18;;;;;;;8.18;1.55;;;;;;;2.22;100.00;97776.69;5072224;28;20131;-77
2021/12/05 03:10:45;;;;;;;2.58;1.48;;;;;;;2.37;100.00;97792.16;5075512;28;20053;-77
2021/12/05 03:13:12;;;;;;;6.82;1.88;;;;;;;2.23;100.00;97766.81;5069346;28;20447;-76
2021/12/05 03:15:39;;;;;;;6.03;1.10;;;;;;;2.26;100.00;97777.22;5059748;28;20047;-76
2021/12/05 03:18:06;;;;;;;14.95;2.05;;;;;;;2.16;100.00;97784.59;5074016;28;20048;-76
2021/12/05 03:20:33;;;;;;;6.88;1.40;;;;;;;2.28;100.00;97784.06;5073649;28;20045;-76
2021/12/05 03:23:00;;;;;;;3.30;1.27;;;;;;;2.15;100.00;97783.72;5074767;28;20098;-76
2021/12/05 03:25:28;;;;;;;5.57;1.42;;;;;;;2.21;100.00;97774.19;5073836;28;20526;-76
2021/12/05 03:27:55;;;;;;;8.07;1.38;;;;;;;2.20;100.00;97778.72;5074605;28;20110;-76
2021/12/05 03:30:25;;;;;;;7.63;1.45;;;;;;;2.35;100.00;97772.69;5073192;28;20052;-76
2021/12/05 03:32:54;;;;;;;4.43;1.70;;;;;;;2.25;100.00;97779.03;5073851;28;20102;-76
2021/12/05 03:35:23;;;;;;;1.67;1.08;;;;;;;2.10;100.00;97767.31;5074809;28;20060;-76
2021/12/05 03:37:50;;;;;;;9.02;1.95;;;;;;;2.09;100.00;97774.53;5073611;28;20244;-76
2021/12/05 03:40:19;;;;;;;7.63;1.23;;;;;;;2.26;100.00;97766.50;5070677;28;20083;-76
2021/12/05 03:42:48;;;;;;;2.97;1.30;;;;;;;2.10;100.00;97759.25;5073158;28;20049;-78
2021/12/05 03:45:17;;;;;;;4.75;1.33;;;;;;;2.02;100.00;97741.31;5074345;28;20053;-76
2021/12/05 03:47:44;;;;;;;4.30;1.10;;;;;;;2.01;100.00;97749.53;5073369;28;20114;-76
2021/12/05 03:50:12;;;;;;;9.82;1.70;;;;;;;2.12;100.00;97742.00;5063173;28;20057;-76
2021/12/05 03:52:40;;;;;;;17.15;4.15;;;;;;;2.15;100.00;97756.09;5073519;28;20488;-76
2021/12/05 03:55:09;;;;;;;2.10;1.00;;;;;;;2.17;100.00;97748.69;5074096;28;20049;-76
2021/12/05 03:57:36;;;;;;;8.63;1.05;;;;;;;2.06;100.00;97734.63;5073827;28;20556;-76
2021/12/05 04:00:09;;;;;;;4.78;1.30;;;;;;;1.89;100.00;97733.75;5073663;28;20063;-76
2021/12/05 04:02:36;;;;;;;11.32;1.67;;;;;;;1.92;100.00;97737.97;5073736;28;20061;-76
2021/12/05 04:05:04;;;;;;;8.80;1.30;;;;;;;1.94;100.00;97750.19;5072632;28;20404;-76
2021/12/05 04:07:33;;;;;;;1.63;1.23;;;;;;;2.07;100.00;97755.06;5073108;28;20060;-76
2021/12/05 04:10:00;;;;;;;4.20;1.30;;;;;;;1.96;100.00;97763.44;5073126;28;20408;-76
2021/12/05 04:12:27;;;;;;;1.45;1.05;;;;;;;2.03;100.00;97756.41;5072958;28;20110;-77
2021/12/05 04:14:55;;;;;;;3.20;1.02;;;;;;;1.98;100.00;97739.16;5073894;28;20129;-77
2021/12/05 04:17:24;;;;;;;2.97;1.45;;;;;;;2.08;100.00;97754.06;5073128;28;20059;-77
2021/12/05 04:19:51;;;;;;;4.47;1.38;;;;;;;1.95;100.00;97740.31;5073915;28;20048;-76
2021/12/05 04:22:18;;;;;;;3.05;1.30;;;;;;;2.00;100.00;97754.03;5071328;28;20092;-77
2021/12/05 04:24:46;;;;;;;4.70;0.90;;;;;;;1.95;100.00;97749.16;5073592;28;20420;-77
2021/12/05 04:27:13;;;;;;;3.30;1.02;;;;;;;1.86;100.00;97747.47;5072845;28;20486;-77
2021/12/05 04:29:40;;;;;;;3.33;1.10;;;;;;;2.00;100.00;97763.94;5073247;28;20045;-77
2021/12/05 04:32:08;;;;;;;2.85;1.00;;;;;;;1.94;100.00;97741.28;5073305;28;20052;-76
2021/12/05 04:34:37;;;;;;;5.05;1.13;;;;;;;2.18;100.00;97771.84;5072692;28;20052;-77
2021/12/05 04:37:04;;;;;;;11.90;1.48;;;;;;;1.99;100.00;97757.75;5070908;28;20074;-77
2021/12/05 04:39:31;;;;;;;1.63;1.10;;;;;;;2.02;100.00;97761.91;5064555;28;20052;-77
2021/12/05 04:41:59;;;;;;;2.95;1.30;;;;;;;2.06;100.00;97766.81;5072859;28;20139;-77
2021/12/05 04:44:27;;;;;;;3.60;1.23;;;;;;;2.07;100.00;97760.41;5073560;28;20056;-77
2021/12/05 04:46:54;;;;;;;5.57;1.40;;;;;;;2.06;100.00;97761.44;5072917;28;20072;-77
2021/12/05 04:49:21;;;;;;;4.60;1.27;;;;;;;2.12;100.00;97768.81;5072548;28;20048;-76
2021/12/05 04:51:50;;;;;;;2.58;1.25;;;;;;;2.07;100.00;97755.06;5071869;28;20053;-77
2021/12/05 04:54:20;;;;;;;3.00;1.55;;;;;;;2.12;100.00;97763.47;5073255;28;20056;-77
2021/12/05 04:56:48;;;;;;;6.30;1.27;;;;;;;2.15;100.00;97764.94;5072800;28;20508;-77
2021/12/05 04:59:19;;;;;;;7.03;1.65;;;;;;;2.16;100.00;97776.53;5072515;28;20261;-77
2021/12/05 05:01:49;;;;;;;3.42;2.08;;;;;;;2.12;100.00;97767.97;5072674;28;20492;-77
2021/12/05 05:04:24;;;;;;;7.25;1.40;;;;;;;2.18;100.00;97772.66;5069886;28;20049;-77
2021/12/05 05:06:53;;;;;;;5.78;1.35;;;;;;;2.15;100.00;97782.88;5058984;28;20057;-77
2021/12/05 05:09:20;;;;;;;1.30;1.10;;;;;;;2.13;100.00;97781.22;5063225;28;20049;-77
2021/12/05 05:11:47;;;;;;;3.15;1.33;;;;;;;2.11;100.00;97771.66;5072069;28;20048;-77
2021/12/05 05:14:14;;;;;;;5.82;2.60;;;;;;;2.19;100.00;97770.84;5061984;28;20137;-77
2021/12/05 05:16:41;;;;;;;4.10;1.17;;;;;;;2.16;100.00;97773.84;5072361;28;20076;-77
2021/12/05 05:19:10;;;;;;;9.35;2.22;;;;;;;2.06;100.00;97765.94;5072581;28;20044;-77
2021/12/05 05:21:42;;;;;;;2.90;1.02;;;;;;;2.18;100.00;97775.34;5071781;28;20040;-77
2021/12/05 05:30:00;;;;;;;4.85;2.08;;;;;;;2.18;100.00;97766.47;5071741;28;20488;-77
2021/12/05 05:43:34;;;;;;;7.38;1.02;;;;;;;1.96;100.00;97776.84;5063490;28;20412;-77
2021/12/05 05:48:48;;;;;;;3.17;1.15;;;;;;;1.85;100.00;97778.00;5068280;28;20053;-77
2021/12/05 05:51:15;;;;;;;7.70;1.48;;;;;;;1.98;100.00;97798.13;5071943;28;20056;-77
2021/12/05 05:53:44;;;;;;;2.45;0.98;;;;;;;1.75;100.00;97786.16;5071982;28;20044;-77
2021/12/05 05:56:16;;;;;;;3.78;1.30;;;;;;;1.78;100.00;97795.72;5070664;28;20048;-76
2021/12/05 05:58:47;;;;;;;2.80;0.90;;;;;;;1.55;100.00;97774.88;5064228;28;20040;-76
2021/12/05 06:01:21;;;;;;;4.70;0.85;;;;;;;1.64;100.00;97799.84;5068285;28;20049;-77
2021/12/05 06:03:48;;;;;;;4.05;1.00;;;;;;;1.51;100.00;97786.06;5064882;28;20120;-76
2021/12/05 06:06:17;;;;;;;4.07;0.88;;;;;;;1.45;100.00;97789.41;5072488;28;20056;-76
2021/12/05 06:08:45;;;;;;;3.25;1.60;;;;;;;1.50;100.00;97784.38;5071473;28;20135;-76
2021/12/05 06:11:16;;;;;;;3.65;1.33;;;;;;;1.55;100.00;97793.63;5071261;28;20442;-77
2021/12/05 06:13:43;;;;;;;7.90;1.60;;;;;;;1.52;100.00;97783.22;5070772;28;20064;-77
2021/12/05 06:16:11;;;;;;;2.60;1.27;;;;;;;1.59;100.00;97788.78;5071920;28;20048;-76
2021/12/05 06:18:39;;;;;;;3.00;1.58;;;;;;;1.42;100.00;97771.81;5071855;28;20462;-77
2021/12/05 06:21:07;;;;;;;2.67;1.08;;;;;;;1.43;100.00;97776.16;5070943;28;20480;-77
2021/12/05 06:23:35;;;;;;;4.88;1.20;;;;;;;1.20;100.00;97775.88;5071398;28;20048;-76
2021/12/05 06:26:02;;;;;;;7.40;1.70;;;;;;;1.35;100.00;97793.00;5071336;28;20044;-77
2021/12/05 06:28:34;;;;;;;8.40;1.25;;;;;;;1.27;100.00;97779.59;5069771;28;20060;-77
2021/12/05 06:31:10;;;;;;;9.35;2.05;;;;;;;1.27;100.00;97778.78;5063477;28;20053;-77
2021/12/05 06:42:06;;;;;;;4.05;1.23;;;;;;;1.02;100.00;97797.34;5067878;28;20048;-76
2021/12/05 06:47:24;;;;;;;6.93;1.38;;;;;;;0.98;100.00;97804.88;5069751;28;20051;-76
2021/12/05 06:49:52;;;;;;;3.00;1.50;;;;;;;0.98;100.00;97812.03;5066922;28;20473;-76
2021/12/05 06:52:19;;;;;;;4.82;1.27;;;;;;;0.94;100.00;97790.13;5074838;28;20523;-77
2021/12/05 06:54:46;;;;;;;2.05;1.02;;;;;;;0.91;100.00;97795.78;5074368;28;20054;-77
2021/12/05 06:57:13;;;;;;;5.57;1.38;;;;;;;0.93;100.00;97799.13;5074864;28;20053;-77
2021/12/05 06:59:45;;;;;;;4.53;1.85;;;;;;;1.08;100.00;97810.09;5074138;28;20055;-77
2021/12/05 07:02:14;;;;;;;4.68;2.13;;;;;;;1.22;100.00;97824.75;5074902;28;20049;-77
2021/12/05 07:05:04;;;;;;;2.60;2.03;;;;;;;1.34;100.00;97814.59;5073284;28;20044;-77
2021/12/05 07:07:35;;;;;;;7.43;2.97;;;;;;;1.25;100.00;97816.41;5071443;28;20122;-77
2021/12/05 07:10:03;;;;;;;3.78;1.38;;;;;;;1.14;100.00;97803.28;5072787;28;20478;-76
2021/12/05 07:15:26;;;;;;;4.68;1.40;;;;;;;1.12;100.00;97805.28;5066676;28;20412;-77
2021/12/05 07:20:51;;;;;;;3.58;2.00;;;;;;;1.13;100.00;97820.34;5073301;28;20499;-77
2021/12/05 07:23:31;;;;;;;6.18;1.70;;;;;;;1.03;100.00;97823.13;5073084;28;20036;-77
2021/12/05 07:26:09;;;;;;;2.63;1.70;;;;;;;1.12;100.00;97830.22;5074257;28;20056;-77
2021/12/05 07:42:23;;;;;;;3.90;1.17;;;;;;;0.94;100.00;97824.91;5072951;28;20068;-77
2021/12/05 07:44:50;;;;;;;2.50;0.93;;;;;;;0.92;100.00;97831.41;5073130;28;20048;-77
2021/12/05 07:47:19;;;;;;;4.53;1.10;;;;;;;1.02;100.00;97827.66;5073588;28;20052;-77
2021/12/05 07:49:47;;;;;;;1.50;1.10;;;;;;;0.90;100.00;97826.22;5070278;28;20506;-77
2021/12/05 07:52:18;;;;;;;2.95;1.15;;;;;;;0.88;100.00;97820.19;5073337;28;20044;-77
2021/12/05 07:54:50;;;;;;;4.82;1.05;;;;;;;0.96;100.00;97830.09;5072786;28;20135;-78
2021/12/05 07:57:21;;;;;;;2.28;1.27;;;;;;;0.88;100.00;97823.69;5072633;28;20049;-77
2021/12/05 08:00:00;;;;;;;3.90;1.85;;;;;;;1.10;100.00;97834.03;5073665;28;20419;-77
2021/12/05 08:16:25;;;;;;;3.78;1.20;;;;;;;1.16;100.00;97828.03;5073570;28;20132;-79
2021/12/05 08:18:53;;;;;;;1.27;1.17;;;;;;;1.12;100.00;97814.16;5074961;28;20048;-78
2021/12/05 08:21:20;;;;;;;3.00;2.00;;;;;;;1.37;100.00;97833.03;5074596;28;20040;-78
2021/12/05 08:23:49;;;;;;;3.28;1.80;;;;;;;1.28;100.00;97818.78;5074237;28;20047;-78
2021/12/05 08:26:19;;;;;;;2.70;2.08;;;;;;;1.49;100.00;97829.09;5069388;28;20114;-78
2021/12/05 08:29:03;;;;;;;6.03;1.88;;;;;;;1.49;100.00;97815.69;5066038;28;20048;-78
2021/12/05 08:31:43;;;;;;;6.00;1.90;;;;;;;1.62;100.00;97834.00;5069433;28;20483;-78
2021/12/05 08:34:34;;;;;;;2.33;1.65;;;;;;;1.68;100.00;97821.78;5065266;28;20087;-78
2021/12/05 08:37:32;;;;;;;1.50;1.40;;;;;;;1.73;100.00;97817.63;5066175;28;20045;-78
2021/12/05 08:43:22;;;;;;;7.00;2.47;;;;;;;1.86;100.00;97817.16;5065198;28;20051;-78
2021/12/05 09:25:18;;;;;;;2.25;1.20;;;;;;;2.72;100.00;97843.81;5068473;28;20387;-78
2021/12/05 09:28:06;;;;;;;8.38;1.38;;;;;;;2.78;100.00;97830.53;5059946;28;20183;-78
2021/12/05 09:30:50;;;;;;;2.55;1.10;;;;;;;2.77;100.00;97846.81;5049729;28;20401;-78
2021/12/05 09:39:27;;;;;;;5.80;1.30;;;;;;;2.85;100.00;97857.56;5057131;28;20199;-78
2021/12/05 10:06:44;;;;;;;2.83;1.50;;;;;;;3.44;100.00;97825.06;5060466;28;20400;-78
2021/12/05 10:09:27;;;;;;;8.23;1.75;;;;;;;3.45;100.00;97815.19;5057743;28;20174;-78
2021/12/05 10:12:11;;;;;;;9.85;1.45;;;;;;;3.42;100.00;97808.31;5057803;28;20082;-78
2021/12/05 10:14:52;;;;;;;2.55;1.02;;;;;;;3.58;100.00;97814.63;5048627;28;20400;-78
2021/12/05 10:17:42;;;;;;;2.80;1.30;;;;;;;3.45;100.00;97801.75;5060683;28;20503;-78
2021/12/05 10:26:18;;;;;;;3.20;1.42;;;;;;;3.56;100.00;97795.16;5049526;28;20127;-78
2021/12/05 10:26:38;;;;;;;6.97;1.00;;;;;;;4.11;100.00;97810.38;5045771;28;20056;-78
2021/12/05 10:35:07;;;;;;;4.15;1.00;;;;;;;4.17;100.00;97782.75;5044872;28;20103;-78
2021/12/05 10:37:46;;;;;;;2.38;1.23;;;;;;;4.16;100.00;97791.81;5038205;28;20080;-78
2021/12/05 10:40:19;;;;;;;1.17;0.80;;;;;;;4.14;100.00;97799.25;5024399;28;20042;-78
2021/12/05 10:42:49;;;;;;;2.40;1.00;;;;;;;4.06;100.00;97789.38;5035086;28;20501;-78
2021/12/05 10:45:33;;;;;;;2.72;0.90;;;;;;;4.14;100.00;97811.84;5045224;28;20127;-78
2021/12/05 10:48:06;;;;;;;6.47;1.30;;;;;;;4.04;100.00;97804.84;5045132;28;20057;-78
2021/12/05 10:50:37;;;;;;;2.30;0.80;;;;;;;3.98;100.00;97800.16;5040962;28;20580;-78
2021/12/05 10:53:31;;;;;;;3.03;1.17;;;;;;;3.99;100.00;97806.38;5036849;28;20045;-78
2021/12/05 10:56:01;;;;;;;1.65;0.88;;;;;;;3.83;100.00;97796.56;5033249;28;20053;-79
2021/12/05 10:58:35;;;;;;;1.60;0.85;;;;;;;3.85;100.00;97795.38;5033591;28;20042;-78
2021/12/05 11:01:12;;;;;;;4.18;1.15;;;;;;;3.79;100.00;97793.34;5041466;28;20126;-78
2021/12/05 11:03:44;;;;;;;11.40;1.63;;;;;;;3.89;100.00;97803.91;5031331;28;20044;-78
2021/12/05 11:06:23;;;;;;;2.10;0.90;;;;;;;4.01;100.00;97812.44;5042051;28;20460;-78
2021/12/05 11:08:56;;;;;;;1.75;0.80;;;;;;;4.04;100.00;97780.63;5047814;28;20525;-77
2021/12/05 11:11:24;;;;;;;3.72;1.15;;;;;;;4.27;100.00;97785.19;5042504;28;20084;-78
2021/12/05 11:13:51;;;;;;;2.42;0.88;;;;;;;4.46;99.08;97791.09;5029271;28;20103;-79
2021/12/05 11:16:56;;;;;;;1.10;0.77;;;;;;;4.46;95.74;97764.19;5041869;28;20084;-79
2021/12/05 11:19:28;;;;;;;1.55;0.60;;;;;;;4.64;97.42;97785.41;4983042;28;20574;-79
2021/12/05 11:21:58;;;;;;;4.20;1.17;;;;;;;4.40;94.12;97761.22;5020644;28;20497;-79
2021/12/05 11:24:29;;;;;;;0.77;0.45;;;;;;;4.45;95.81;97768.75;5035276;28;20501;-79
2021/12/05 11:27:10;;;;;;;;;;;;;;;4.47;97.15;97779.34;5044494;28;20056;-79
2021/12/05 11:29:42;;;;;;;2.92;0.90;;;;;;;4.39;97.34;97769.47;5035114;28;19943;-79
2021/12/05 11:32:11;;;;;;;2.20;1.10;;;;;;;4.40;97.77;97766.59;5019688;28;20046;-79
2021/12/05 11:34:40;;;;;;;2.72;0.90;;;;;;;4.49;96.09;97777.31;5024836;28;20507;-79
2021/12/05 11:37:07;;;;;;;3.60;1.10;;;;;;;4.49;96.85;97775.47;5045035;28;20056;-79
2021/12/05 11:39:33;;;;;;;3.22;1.17;;;;;;;4.60;97.14;97771.50;5043086;28;20044;-79
2021/12/05 11:42:01;;;;;;;8.23;1.02;;;;;;;4.42;97.76;97755.66;5037432;28;20049;-79
2021/12/05 11:44:28;;;;;;;3.28;1.05;;;;;;;4.35;98.25;97774.41;5041200;28;20048;-79
2021/12/05 11:46:55;;;;;;;1.30;0.70;;;;;;;4.25;98.04;97755.78;5040367;28;20428;-79
2021/12/05 11:49:25;;;;;;;2.60;0.82;;;;;;;4.25;97.98;97755.78;5039947;28;20394;-79
2021/12/05 11:51:56;;;;;;;3.50;1.38;;;;;;;4.41;97.57;97778.19;5022457;28;20061;-79
2021/12/05 11:54:25;;;;;;;4.10;2.13;;;;;;;4.22;97.63;97758.84;5029246;28;20049;-79
2021/12/05 11:56:55;;;;;;;1.77;1.25;;;;;;;4.21;98.00;97756.31;5044556;28;20060;-79
2021/12/05 11:59:25;;;;;;;4.07;1.20;;;;;;;4.40;99.44;97769.28;5038627;28;20041;-78
2021/12/05 12:02:01;;;;;;;3.40;1.95;;;;;;;4.52;99.60;97772.41;5042353;28;20049;-79
